.
WxDataArchive / Data Records for 2010-12-04
2010-12-03 December 2010 2010-12-05

Data Records for Saturday, 04 December 2010

Time	Temp	Chill	HIndex	Humid	Dewpt	 Wind 	HiWind	WindDir	Rain 	Barom 
-----	----	-----	------	-----	-----	------	------	-------	-----	----- 
00:00	28.5	28.5	28.5	78	22.5	0	0	---	0.00	30.185 
00:05	28.5	28.5	28.5	78	22.5	0	0	---	0.00	30.185 
00:10	28.5	28.5	28.5	78	22.5	0	0	---	0.00	30.185 
00:15	28.5	28.5	28.5	78	22.5	0	0	---	0.00	30.187 
00:20	28.5	28.5	28.5	79	22.8	0	0	---	0.00	30.187 
00:25	28.5	28.5	28.5	79	22.8	0	0	---	0.00	30.187 
00:30	28.4	28.4	28.4	80	23.0	0	0	---	0.00	30.184 
00:35	28.4	28.4	28.4	80	23.0	0	0	---	0.00	30.184 
00:40	28.4	28.4	28.4	80	23.0	0	0	---	0.00	30.184 
00:45	28.4	28.4	28.4	80	23.0	0	0	---	0.00	30.171 
00:50	28.4	28.4	28.4	80	23.0	0	0	---	0.00	30.171 
00:55	28.4	28.4	28.4	81	23.3	0	0	---	0.00	30.171 
01:00	28.4	28.4	28.4	81	23.3	0	0	---	0.00	30.171 
01:05	28.4	28.4	28.4	81	23.3	0	0	---	0.00	30.171 
01:10	28.4	28.4	28.4	81	23.3	0	0	---	0.00	30.171 
01:15	28.2	28.2	28.2	81	23.1	0	0	---	0.00	30.173 
01:20	28.2	28.2	28.2	80	22.8	0	0	---	0.00	30.173 
01:25	28.2	28.2	28.2	80	22.8	0	0	---	0.00	30.173 
01:30	28.2	28.2	28.2	80	22.8	0	0	---	0.00	30.171 
01:35	28.1	28.1	28.1	80	22.7	0	0	---	0.00	30.171 
01:40	28.1	28.1	28.1	80	22.7	0	0	---	0.00	30.171 
01:45	28.1	28.1	28.1	80	22.7	0	0	---	0.00	30.174 
01:50	28.1	28.1	28.1	80	22.7	0	0	---	0.00	30.174 
01:55	28.1	28.1	28.1	79	22.4	0	0	---	0.00	30.174 
02:00	28.1	28.1	28.1	79	22.4	0	0	---	0.00	30.171 
02:05	28.1	28.1	28.1	79	22.4	0	0	---	0.00	30.171 
02:10	28.1	28.1	28.1	79	22.4	0	0	---	0.00	30.171 
02:15	28.1	28.1	28.1	79	22.4	0	0	---	0.00	30.168 
02:20	28.2	28.2	28.2	79	22.5	0	0	---	0.00	30.168 
02:25	28.2	28.2	28.2	79	22.5	0	0	---	0.00	30.168 
02:30	28.2	28.2	28.2	79	22.5	0	0	---	0.00	30.168 
02:35	28.2	28.2	28.2	79	22.5	0	0	---	0.00	30.168 
02:40	28.2	28.2	28.2	79	22.5	0	0	---	0.00	30.168 
02:45	28.2	28.2	28.2	79	22.5	0	0	---	0.00	30.167 
02:50	28.2	28.2	28.2	79	22.5	0	0	---	0.00	30.167 
02:55	28.4	28.4	28.4	79	22.7	0	0	---	0.00	30.167 
03:00	28.4	28.4	28.4	80	23.0	0	1	315	0.00	30.157 
03:05	28.4	28.4	28.4	80	23.0	0	1	315	0.00	30.157 
03:10	28.4	28.4	28.4	80	23.0	0	1	315	0.00	30.157 
03:15	28.2	28.2	28.2	80	22.8	0	0	---	0.00	30.165 
03:20	28.2	28.2	28.2	81	23.1	0	0	---	0.00	30.165 
03:25	28.2	28.2	28.2	81	23.1	0	1	315	0.00	30.165 
03:30	28.2	28.2	28.2	81	23.1	0	1	315	0.00	30.156 
03:35	28.2	28.2	28.2	81	23.1	0	1	315	0.00	30.156 
03:40	28.2	28.2	28.2	81	23.1	0	0	---	0.00	30.156 
03:45	28.1	28.1	28.1	81	23.0	0	1	315	0.00	30.154 
03:50	28.1	28.1	28.1	80	22.7	0	0	---	0.00	30.154 
03:55	28.1	28.1	28.1	80	22.7	0	1	315	0.00	30.154 
04:00	28.2	28.2	28.2	79	22.5	0	1	315	0.00	30.143 
04:05	28.2	28.2	28.2	78	22.2	0	1	315	0.00	30.143 
04:10	28.2	28.2	28.2	78	22.2	0	0	---	0.00	30.143 
04:15	28.2	28.2	28.2	78	22.2	0	1	315	0.00	30.139 
04:20	28.2	28.2	28.2	78	22.2	0	1	315	0.00	30.139 
04:25	28.2	28.2	28.2	78	22.2	0	0	---	0.00	30.139 
04:30	28.2	28.2	28.2	78	22.2	0	2	315	0.00	30.133 
04:35	28.2	28.2	28.2	78	22.2	1	2	315	0.00	30.133 
04:40	28.1	28.1	28.1	78	22.1	1	2	0	0.00	30.133 
04:45	28.1	28.1	28.1	78	22.1	1	3	0	0.00	30.124 
04:50	28.1	28.1	28.1	78	22.1	1	2	0	0.00	30.124 
04:55	28.1	28.1	28.1	78	22.1	0	1	0	0.00	30.124 
05:00	28.1	28.1	28.1	79	22.4	0	2	22	0.00	30.123 
05:05	28.1	28.1	28.1	79	22.4	0	2	22	0.00	30.123 
05:10	27.9	27.9	27.9	79	22.2	1	3	22	0.00	30.123 
05:15	28.1	28.1	28.1	79	22.4	0	2	22	0.00	30.112 
05:20	28.1	28.1	28.1	79	22.4	0	3	22	0.00	30.112 
05:25	28.1	28.1	28.1	79	22.4	0	1	22	0.00	30.112 
05:30	27.9	27.9	27.9	79	22.2	0	1	22	0.00	30.108 
05:35	27.9	27.9	27.9	78	21.9	0	2	22	0.00	30.108 
05:40	27.9	27.9	27.9	77	21.6	0	1	22	0.00	30.108 
05:45	27.9	27.9	27.9	77	21.6	0	1	22	0.00	30.102 
05:50	27.9	27.9	27.9	77	21.6	0	1	22	0.00	30.102 
05:55	27.9	27.9	27.9	77	21.6	0	2	22	0.00	30.102 
06:00	27.9	27.9	27.9	77	21.6	0	2	22	0.00	30.102 
06:05	27.9	27.9	27.9	77	21.6	0	3	45	0.00	30.102 
06:10	27.9	27.9	27.9	77	21.6	0	1	45	0.00	30.102 
06:15	27.9	27.9	27.9	77	21.6	0	1	45	0.00	30.094 
06:20	27.9	27.9	27.9	78	21.9	0	2	45	0.00	30.094 
06:25	27.8	27.8	27.8	78	21.8	0	2	45	0.00	30.094 
06:30	27.8	27.8	27.8	78	21.8	1	3	45	0.00	30.089 
06:35	27.8	27.8	27.8	78	21.8	0	2	45	0.00	30.089 
06:40	27.6	27.6	27.6	78	21.7	0	1	45	0.00	30.089 
06:45	27.6	27.6	27.6	78	21.7	0	1	45	0.00	30.087 
06:50	27.6	27.6	27.6	78	21.7	0	2	45	0.00	30.087 
06:55	27.6	27.6	27.6	78	21.7	1	2	45	0.00	30.087 
07:00	27.6	27.6	27.6	78	21.7	0	2	45	0.00	30.079 
07:05	27.6	27.6	27.6	79	22.0	0	2	45	0.00	30.079 
07:10	27.6	27.6	27.6	79	22.0	0	2	45	0.00	30.079 
07:15	27.6	27.6	27.6	79	22.0	0	1	45	0.00	30.077 
07:20	27.6	27.6	27.6	79	22.0	0	1	45	0.00	30.077 
07:25	27.6	27.6	27.6	79	22.0	0	2	45	0.00	30.077 
07:30	27.6	27.6	27.6	79	22.0	0	2	45	0.00	30.074 
07:35	27.6	27.6	27.6	79	22.0	0	0	---	0.00	30.074 
07:40	27.6	27.6	27.6	79	22.0	0	2	45	0.00	30.074 
07:45	27.6	27.6	27.6	79	22.0	0	1	45	0.00	30.076 
07:50	27.8	27.8	27.8	78	21.8	0	1	45	0.00	30.076 
07:55	27.8	27.8	27.8	78	21.8	0	1	45	0.00	30.076 
08:00	27.8	27.8	27.8	78	21.8	0	1	45	0.00	30.076 
08:05	27.8	27.8	27.8	78	21.8	0	0	---	0.00	30.076 
08:10	27.8	27.8	27.8	77	21.5	0	0	---	0.00	30.076 
08:15	27.9	27.9	27.9	77	21.6	0	1	45	0.00	30.078 
08:20	27.9	27.9	27.9	77	21.6	0	1	45	0.00	30.078 
08:25	27.9	27.9	27.9	77	21.6	0	1	45	0.00	30.078 
08:30	27.9	27.9	27.9	76	21.3	0	1	45	0.00	30.080 
08:35	27.9	27.9	27.9	76	21.3	0	1	45	0.00	30.080 
08:40	28.1	28.1	28.1	76	21.5	0	2	45	0.00	30.080 
08:45	28.1	28.1	28.1	74	20.9	0	2	45	0.00	30.078 
08:50	28.1	28.1	28.1	75	21.2	0	1	45	0.00	30.078 
08:55	28.2	28.2	28.2	74	21.0	0	1	45	0.00	30.078 
09:00	28.2	28.2	28.2	74	21.0	0	1	45	0.00	30.080 
09:05	28.2	28.2	28.2	75	21.3	0	1	45	0.00	30.080 
09:10	28.4	28.4	28.4	76	21.8	0	0	---	0.00	30.080 
09:15	28.4	28.4	28.4	77	22.1	0	0	---	0.00	30.086 
09:20	28.4	28.4	28.4	77	22.1	0	0	---	0.00	30.086 
09:25	28.2	28.2	28.2	78	22.2	0	1	45	0.00	30.086 
09:30	28.2	28.2	28.2	80	22.8	0	0	---	0.00	30.090 
09:35	28.1	28.1	28.1	81	23.0	0	1	45	0.00	30.090 
09:40	27.9	27.9	27.9	82	23.1	0	1	45	0.00	30.090 
09:45	27.8	27.8	27.8	83	23.3	0	1	45	0.00	30.091 
09:50	27.8	27.8	27.8	84	23.6	0	0	---	0.00	30.091 
09:55	27.8	27.8	27.8	84	23.6	0	0	---	0.00	30.091 
10:00	27.8	27.8	27.8	85	23.9	0	0	---	0.00	30.093 
10:05	27.8	27.8	27.8	85	23.9	0	0	---	0.00	30.093 
10:10	27.8	27.8	27.8	86	24.2	0	0	---	0.00	30.093 
10:15	27.8	27.8	27.8	86	24.2	0	0	---	0.00	30.094 
10:20	27.6	27.6	27.6	85	23.7	1	3	112	0.00	30.094 
10:25	27.6	27.6	27.6	85	23.7	0	2	112	0.00	30.094 
10:30	27.6	27.6	27.6	84	23.4	0	3	112	0.00	30.088 
10:35	27.5	27.5	27.5	83	23.0	1	4	112	0.00	30.088 
10:40	27.5	27.5	27.5	83	23.0	0	2	112	0.00	30.088 
10:45	27.6	27.6	27.6	83	23.1	1	4	112	0.00	30.088 
10:50	27.6	27.6	27.6	81	22.5	1	4	112	0.00	30.088 
10:55	27.8	27.8	27.8	81	22.7	0	2	90	0.00	30.088 
11:00	27.8	27.8	27.8	81	22.7	0	3	90	0.00	30.088 
11:05	28.1	28.1	28.1	80	22.7	2	3	90	0.00	30.088 
11:10	28.1	28.1	28.1	79	22.4	2	4	90	0.00	30.088 
11:15	28.1	28.1	28.1	79	22.4	2	5	90	0.00	30.078 
11:20	28.1	28.1	28.1	80	22.7	1	3	90	0.00	30.078 
11:25	28.1	28.1	28.1	80	22.7	1	3	90	0.00	30.078 
11:30	28.1	28.1	28.1	80	22.7	1	4	90	0.00	30.073 
11:35	28.1	28.1	28.1	81	23.0	1	4	90	0.00	30.073 
11:40	27.9	27.9	27.9	81	22.8	2	5	90	0.00	30.073 
11:45	27.8	27.8	27.8	81	22.7	1	4	90	0.00	30.066 
11:50	27.9	27.9	27.9	82	23.1	1	4	90	0.00	30.066 
11:55	27.9	27.9	27.9	81	22.8	1	3	90	0.00	30.066 
12:00	28.2	28.2	28.2	82	23.4	0	5	90	0.00	30.061 
12:05	28.2	28.2	28.2	82	23.4	1	4	90	0.00	30.061 
12:10	28.4	28.4	28.4	81	23.3	1	3	90	0.00	30.061 
12:15	28.5	28.5	28.5	82	23.7	1	4	90	0.00	30.059 
12:20	28.4	28.4	28.4	81	23.3	2	5	90	0.00	30.059 
12:25	28.4	28.4	28.4	82	23.6	1	4	90	0.00	30.059 
12:30	28.4	28.4	28.4	82	23.6	0	3	90	0.00	30.052 
12:35	28.5	28.5	28.5	82	23.7	0	1	90	0.00	30.052 
12:40	28.4	28.4	28.4	82	23.6	2	4	112	0.00	30.052 
12:45	28.5	28.5	28.5	83	24.0	0	4	112	0.00	30.047 
12:50	28.8	28.8	28.8	83	24.3	1	4	90	0.00	30.047 
12:55	29.0	29.0	29.0	82	24.2	1	4	135	0.00	30.047 
13:00	29.1	29.1	29.1	81	24.0	1	5	90	0.00	30.045 
13:05	29.1	29.1	29.1	81	24.0	2	5	68	0.01	30.045 
13:10	29.3	29.3	29.3	81	24.2	0	3	90	0.00	30.045 
13:15	29.3	29.3	29.3	80	23.9	1	4	90	0.00	30.039 
13:20	29.4	29.4	29.4	79	23.7	1	3	112	0.00	30.039 
13:25	29.4	29.4	29.4	78	23.4	1	3	45	0.00	30.039 
13:30	29.5	29.5	29.5	78	23.5	0	5	45	0.00	30.033 
13:35	29.8	29.8	29.8	78	23.8	1	5	90	0.00	30.033 
13:40	29.8	29.8	29.8	76	23.2	2	5	90	0.00	30.033 
13:45	29.8	29.8	29.8	76	23.2	2	4	112	0.00	30.029 
13:50	30.1	30.1	30.1	75	23.2	0	2	112	0.00	30.029 
13:55	30.4	30.4	30.4	75	23.4	0	1	112	0.00	30.029 
14:00	30.7	30.7	30.7	73	23.1	2	6	112	0.00	30.027 
14:05	30.7	30.7	30.7	71	22.4	2	5	90	0.01	30.027 
14:10	31.2	31.2	31.2	71	22.9	1	5	90	0.00	30.027 
14:15	31.6	31.6	31.6	71	23.3	1	4	90	0.00	30.020 
14:20	31.8	31.8	31.8	68	22.5	2	7	90	0.00	30.020 
14:25	31.8	31.8	31.8	68	22.5	1	5	90	0.00	30.020 
14:30	31.8	31.8	31.8	67	22.1	0	2	22	0.00	30.022 
14:35	31.8	31.8	31.8	66	21.8	1	4	90	0.00	30.022 
14:40	31.8	31.8	31.8	65	21.4	1	3	90	0.00	30.022 
14:45	31.8	31.8	31.8	64	21.0	0	2	90	0.00	30.024 
14:50	31.5	31.5	31.5	63	20.4	0	2	68	0.00	30.024 
14:55	31.3	31.3	31.3	62	19.8	0	2	68	0.00	30.024 
15:00	31.2	31.2	31.2	62	19.7	0	3	90	0.00	30.029 
15:05	31.2	31.2	31.2	62	19.7	0	1	45	0.00	30.029 
15:10	31.2	31.2	31.2	62	19.7	0	2	270	0.00	30.029 
15:15	31.2	31.2	31.2	62	19.7	1	4	90	0.00	30.031 
15:20	31.2	31.2	31.2	62	19.7	0	1	90	0.00	30.031 
15:25	31.2	31.2	31.2	62	19.7	0	2	45	0.00	30.031 
15:30	31.0	31.0	31.0	63	19.9	0	2	45	0.00	30.038 
15:35	30.7	30.7	30.7	63	19.6	0	2	45	0.00	30.038 
15:40	30.7	30.7	30.7	64	20.0	0	3	248	0.00	30.038 
15:45	30.6	30.6	30.6	65	20.3	0	1	248	0.00	30.045 
15:50	30.6	30.6	30.6	64	19.9	0	1	248	0.00	30.045 
15:55	30.6	30.6	30.6	63	19.5	0	2	315	0.00	30.045 
16:00	30.7	30.7	30.7	62	19.2	0	2	315	0.00	30.045 
16:05	30.9	30.9	30.9	62	19.4	0	2	315	0.00	30.045 
16:10	30.9	30.9	30.9	62	19.4	0	3	68	0.00	30.045 
16:15	30.9	30.9	30.9	62	19.4	0	2	68	0.00	30.049 
16:20	30.9	30.9	30.9	64	20.2	0	2	68	0.00	30.049 
16:25	30.9	30.9	30.9	64	20.2	1	3	315	0.00	30.049 
16:30	30.9	30.9	30.9	62	19.4	1	3	315	0.00	30.053 
16:35	30.9	30.9	30.9	62	19.4	1	2	315	0.00	30.053 
16:40	30.7	30.7	30.7	62	19.2	0	1	338	0.00	30.053 
16:45	30.7	30.7	30.7	62	19.2	0	2	338	0.00	30.059 
16:50	30.9	30.9	30.9	63	19.8	0	1	338	0.00	30.059 
16:55	30.7	30.7	30.7	62	19.2	0	1	338	0.00	30.059 
17:00	30.7	30.7	30.7	63	19.6	0	2	338	0.00	30.060 
17:05	30.7	30.7	30.7	62	19.2	0	2	338	0.00	30.060 
17:10	30.7	30.7	30.7	62	19.2	0	2	338	0.00	30.060 
17:15	30.7	30.7	30.7	62	19.2	1	3	45	0.00	30.062 
17:20	30.7	30.7	30.7	62	19.2	0	1	45	0.00	30.062 
17:25	30.7	30.7	30.7	62	19.2	1	4	270	0.00	30.062 
17:30	30.7	30.7	30.7	62	19.2	0	2	45	0.00	30.071 
17:35	30.7	30.7	30.7	62	19.2	0	2	45	0.00	30.071 
17:40	30.7	30.7	30.7	62	19.2	0	1	45	0.00	30.071 
17:45	30.7	30.7	30.7	62	19.2	1	2	45	0.00	30.076 
17:50	30.7	30.7	30.7	62	19.2	0	2	292	0.00	30.076 
17:55	30.7	30.7	30.7	63	19.6	1	3	292	0.00	30.076 
18:00	30.7	30.7	30.7	62	19.2	1	4	0	0.00	30.079 
18:05	30.7	30.7	30.7	63	19.6	0	3	338	0.00	30.079 
18:10	30.7	30.7	30.7	62	19.2	1	3	0	0.00	30.079 
18:15	30.7	30.7	30.7	63	19.6	0	4	22	0.00	30.083 
18:20	30.6	30.6	30.6	62	19.2	1	4	338	0.00	30.083 
18:25	30.6	30.6	30.6	62	19.2	1	4	0	0.00	30.083 
18:30	30.6	30.6	30.6	62	19.2	0	2	315	0.00	30.086 
18:35	30.4	30.4	30.4	61	18.6	0	2	315	0.00	30.086 
18:40	30.4	30.4	30.4	62	19.0	0	2	315	0.00	30.086 
18:45	30.4	30.4	30.4	62	19.0	0	2	315	0.00	30.090 
18:50	30.4	30.4	30.4	62	19.0	1	3	248	0.00	30.090 
18:55	30.4	30.4	30.4	62	19.0	1	5	248	0.00	30.090 
19:00	30.4	30.4	30.4	63	19.3	1	5	292	0.00	30.092 
19:05	30.4	30.4	30.4	63	19.3	0	3	22	0.00	30.092 
19:10	30.4	30.4	30.4	63	19.3	0	2	22	0.00	30.092 
19:15	30.3	30.3	30.3	64	19.6	0	2	22	0.00	30.093 
19:20	30.3	30.3	30.3	64	19.6	0	1	22	0.00	30.093 
19:25	30.3	30.3	30.3	65	20.0	0	1	22	0.00	30.093 
19:30	30.3	30.3	30.3	65	20.0	1	5	22	0.00	30.099 
19:35	30.3	30.3	30.3	65	20.0	1	6	270	0.00	30.099 
19:40	30.3	30.3	30.3	65	20.0	0	3	270	0.00	30.099 
19:45	30.3	30.3	30.3	65	20.0	0	1	90	0.00	30.107 
19:50	30.3	30.3	30.3	66	20.3	0	2	45	0.00	30.107 
19:55	30.3	30.3	30.3	66	20.3	1	4	0	0.00	30.107 
20:00	30.3	30.3	30.3	66	20.3	0	3	338	0.00	30.108 
20:05	30.1	30.1	30.1	67	20.5	1	6	0	0.00	30.108 
20:10	30.1	30.1	30.1	67	20.5	0	2	315	0.00	30.108 
20:15	30.1	30.1	30.1	66	20.1	1	4	22	0.00	30.107 
20:20	30.0	30.0	30.0	65	19.7	0	2	270	0.00	30.107 
20:25	30.0	30.0	30.0	65	19.7	0	2	22	0.00	30.107 
20:30	30.0	30.0	30.0	66	20.0	0	2	22	0.00	30.107 
20:35	29.8	29.8	29.8	65	19.5	1	4	22	0.00	30.107 
20:40	29.8	29.8	29.8	65	19.5	1	6	0	0.00	30.107 
20:45	29.8	29.8	29.8	65	19.5	0	2	338	0.00	30.109 
20:50	29.7	29.7	29.7	65	19.4	0	3	338	0.00	30.109 
20:55	29.7	29.7	29.7	66	19.8	0	3	0	0.00	30.109 
21:00	29.7	29.7	29.7	66	19.8	1	6	45	0.00	30.108 
21:05	29.7	29.7	29.7	65	19.4	1	3	45	0.00	30.108 
21:10	29.7	29.7	29.7	65	19.4	1	4	0	0.00	30.108 
21:15	29.7	29.7	29.7	66	19.8	0	2	270	0.00	30.109 
21:20	29.7	29.7	29.7	66	19.8	0	2	270	0.00	30.109 
21:25	29.7	29.7	29.7	66	19.8	1	4	270	0.00	30.109 
21:30	29.7	29.7	29.7	66	19.8	0	2	315	0.00	30.112 
21:35	29.7	29.7	29.7	66	19.8	1	3	315	0.00	30.112 
21:40	29.5	29.5	29.5	66	19.6	0	2	22	0.00	30.112 
21:45	29.5	29.5	29.5	66	19.6	1	3	338	0.00	30.117 
21:50	29.5	29.5	29.5	66	19.6	0	3	338	0.00	30.117 
21:55	29.5	29.5	29.5	66	19.6	1	7	338	0.00	30.117 
22:00	29.5	29.5	29.5	66	19.6	2	10	22	0.00	30.121 
22:05	29.4	29.4	29.4	65	19.1	1	3	270	0.00	30.121 
22:10	29.4	29.4	29.4	65	19.1	1	4	22	0.00	30.121 
22:15	29.4	29.4	29.4	64	18.8	1	3	270	0.00	30.125 
22:20	29.3	29.3	29.3	64	18.7	0	3	338	0.00	30.125 
22:25	29.3	29.3	29.3	64	18.7	1	3	0	0.00	30.125 
22:30	29.3	29.3	29.3	64	18.7	1	3	0	0.00	30.125 
22:35	29.1	29.1	29.1	64	18.5	1	4	270	0.00	30.125 
22:40	29.1	29.1	29.1	65	18.8	1	3	270	0.00	30.125 
22:45	29.1	29.1	29.1	65	18.8	1	3	338	0.00	30.126 
22:50	29.1	29.1	29.1	65	18.8	0	3	22	0.00	30.126 
22:55	29.1	29.1	29.1	65	18.8	0	3	292	0.00	30.126 
23:00	29.0	29.0	29.0	64	18.4	1	3	248	0.00	30.131 
23:05	29.0	29.0	29.0	64	18.4	2	6	315	0.00	30.131 
23:10	28.8	28.8	28.8	63	17.8	1	3	0	0.00	30.131 
23:15	28.8	28.8	28.8	62	17.4	1	4	315	0.00	30.134 
23:20	28.7	28.7	28.7	62	17.4	1	3	315	0.00	30.134 
23:25	28.7	28.7	28.7	62	17.4	1	2	0	0.00	30.134 
23:30	28.7	28.7	28.7	63	17.7	0	1	0	0.00	30.138 
23:35	28.7	28.7	28.7	62	17.4	1	3	22	0.00	30.138 
23:40	28.7	28.7	28.7	63	17.7	1	4	338	0.00	30.138 
23:45	28.5	28.5	28.5	63	17.5	0	3	338	0.00	30.142 
23:50	28.4	28.4	28.4	62	17.1	1	3	0	0.00	30.142 
23:55	28.1	28.1	28.1	62	16.8	1	3	292	0.00	30.142 

CoCoRaHS
IN-AL-39
A2 Web Hosting
Creative Commons License
GoDaddy
search engine by freefind advanced

loaded 2018-11-12 19:45:31 • last modified 2010-11-18 10:43:29
Privacy PolicyDisclaimer
• wx.awcolley.com is powered by PmWiki v.2002016 •
• all content (unless otherwise noted) © 2018 A W Colley